Time;durP1;ratioP1;P1;durP2;ratioP2;P2;SDS_P1;SDS_P2;PMS_P1;PMS_P2;Temp;Humidity;BMP_temperature;BMP_pressure;BME280_temperature;BME280_humidity;BME280_pressure;Samples;Min_cycle;Max_cycle;Signal;HPM_P1;HPM_P2
2024/03/02 00:00:36;;;;;;;83.28;39.67;;;;;;;;;;5093113;28;20085;-74
2024/03/02 00:03:02;;;;;;;81.43;36.83;;;;;;;;;;5092434;28;20055;-71
2024/03/02 00:05:27;;;;;;;84.80;36.83;;;;;;;;;;5074601;28;20032;-73
2024/03/02 00:07:57;;;;;;;79.28;39.00;;;;;;;;;;5092826;28;20031;-73
2024/03/02 00:10:36;;;;;;;83.22;38.67;;;;;;;;;;5093036;28;20028;-71
2024/03/02 00:13:02;;;;;;;89.90;39.90;;;;;;;;;;5092435;28;20020;-70
2024/03/02 00:15:43;;;;;;;90.03;40.53;;;;;;;;;;5092536;28;20494;-71
2024/03/02 00:18:20;;;;;;;80.85;40.58;;;;;;;;;;5074009;28;20035;-71
2024/03/02 00:20:45;;;;;;;88.20;41.60;;;;;;;;;;5075196;28;20036;-72
2024/03/02 00:23:15;;;;;;;81.93;40.58;;;;;;;;;;5074016;28;20039;-71
2024/03/02 00:25:43;;;;;;;77.60;38.55;;;;;;;;;;5092881;28;20027;-73
2024/03/02 00:28:18;;;;;;;88.03;40.45;;;;;;;;;;5074173;28;20039;-71
2024/03/02 00:30:50;;;;;;;86.13;40.20;;;;;;;;;;5074203;28;20024;-70
2024/03/02 00:33:16;;;;;;;77.40;37.08;;;;;;;;;;5092513;28;20023;-71
2024/03/02 00:35:44;;;;;;;82.65;39.83;;;;;;;;;;5092049;28;20036;-73
2024/03/02 00:38:10;;;;;;;81.25;39.00;;;;;;;;;;5091969;28;20048;-72
2024/03/02 00:40:36;;;;;;;82.40;36.72;;;;;;;;;;5074070;28;20496;-71
2024/03/02 00:43:03;;;;;;;87.28;39.30;;;;;;;;;;5105124;28;20027;-72
2024/03/02 00:45:29;;;;;;;82.90;39.63;;;;;;;;;;5094006;28;20043;-71
2024/03/02 00:47:54;;;;;;;81.35;37.13;;;;;;;;;;5112478;28;20092;-71
2024/03/02 00:50:20;;;;;;;90.57;38.25;;;;;;;;;;5112203;28;20046;-70
2024/03/02 00:52:48;;;;;;;89.00;37.80;;;;;;;;;;5112255;28;20038;-72
2024/03/02 00:55:14;;;;;;;79.05;35.90;;;;;;;;;;5112099;28;20023;-72
2024/03/02 00:57:40;;;;;;;88.00;40.22;;;;;;;;;;5093541;28;20024;-71
2024/03/02 01:00:09;;;;;;;81.82;36.20;;;;;;;;;;5093493;28;20034;-71
2024/03/02 01:02:35;;;;;;;76.13;35.05;;;;;;;;;;5111899;28;20032;-72
2024/03/02 01:05:01;;;;;;;86.53;37.58;;;;;;;;;;5112020;28;20028;-71
2024/03/02 01:07:26;;;;;;;81.35;36.72;;;;;;;;;;5112273;28;20026;-71
2024/03/02 01:09:52;;;;;;;69.95;33.65;;;;;;;;;;5093893;28;20031;-70
2024/03/02 01:12:17;;;;;;;77.05;37.15;;;;;;;;;;5095266;28;20024;-70
2024/03/02 01:14:43;;;;;;;76.75;35.83;;;;;;;;;;5117979;28;20435;-71
2024/03/02 01:17:08;;;;;;;78.68;35.80;;;;;;;;;;5106730;28;20102;-72
2024/03/02 01:19:34;;;;;;;83.28;38.25;;;;;;;;;;5122768;28;20576;-71
2024/03/02 01:21:59;;;;;;;81.07;35.50;;;;;;;;;;5104044;28;20083;-70
2024/03/02 01:24:26;;;;;;;76.78;36.13;;;;;;;;;;5099565;28;20036;-75
2024/03/02 01:26:52;;;;;;;77.78;35.78;;;;;;;;;;5095182;28;20080;-71
2024/03/02 01:29:17;;;;;;;83.32;35.30;;;;;;;;;;5112432;28;20092;-71
2024/03/02 01:31:43;;;;;;;81.90;37.05;;;;;;;;;;5093964;28;20023;-70
2024/03/02 01:34:09;;;;;;;80.85;36.83;;;;;;;;;;5094096;28;20016;-70
2024/03/02 01:36:34;;;;;;;80.97;36.35;;;;;;;;;;5093228;28;20028;-73
2024/03/02 01:38:59;;;;;;;74.22;36.75;;;;;;;;;;5111545;28;20383;-71
2024/03/02 01:41:25;;;;;;;80.15;35.33;;;;;;;;;;5093125;28;20031;-72
2024/03/02 01:43:52;;;;;;;74.45;34.50;;;;;;;;;;5092944;28;20027;-71
2024/03/02 01:46:18;;;;;;;72.53;35.08;;;;;;;;;;5092911;28;20073;-71
2024/03/02 01:48:43;;;;;;;79.68;35.42;;;;;;;;;;5111686;28;20351;-72
2024/03/02 01:51:10;;;;;;;74.22;35.60;;;;;;;;;;5111615;28;20028;-70
2024/03/02 01:53:37;;;;;;;76.22;37.22;;;;;;;;;;5093923;28;20109;-71
2024/03/02 01:56:03;;;;;;;76.32;34.92;;;;;;;;;;5099149;28;20145;-70
2024/03/02 01:58:28;;;;;;;73.32;34.42;;;;;;;;;;5115752;28;20049;-70
2024/03/02 02:00:54;;;;;;;74.13;34.50;;;;;;;;;;5100562;28;20032;-71
2024/03/02 02:03:19;;;;;;;75.60;34.55;;;;;;;;;;5097807;28;20525;-71
2024/03/02 02:05:47;;;;;;;77.40;36.03;;;;;;;;;;5113395;28;20484;-71
2024/03/02 02:08:13;;;;;;;81.10;38.13;;;;;;;;;;5114753;28;20031;-69
2024/03/02 02:10:39;;;;;;;76.85;36.05;;;;;;;;;;5097557;28;20444;-71
2024/03/02 02:13:04;;;;;;;79.43;37.53;;;;;;;;;;5116098;28;20024;-70
2024/03/02 02:15:30;;;;;;;75.93;35.17;;;;;;;;;;5097675;28;20031;-70
2024/03/02 02:17:57;;;;;;;79.97;36.78;;;;;;;;;;5110959;28;20032;-72
2024/03/02 02:20:23;;;;;;;78.10;36.08;;;;;;;;;;5111833;28;20023;-70
2024/03/02 02:23:02;;;;;;;79.50;35.83;;;;;;;;;;5114587;28;20463;-70
2024/03/02 02:25:28;;;;;;;82.03;37.65;;;;;;;;;;5118357;28;20020;-70
2024/03/02 02:27:54;;;;;;;77.80;35.17;;;;;;;;;;5098959;28;20028;-71
2024/03/02 02:30:24;;;;;;;77.30;36.00;;;;;;;;;;5099295;28;20114;-70
2024/03/02 02:32:50;;;;;;;79.30;35.70;;;;;;;;;;5097054;28;20558;-71
2024/03/02 02:35:16;;;;;;;76.97;36.33;;;;;;;;;;5078951;28;20108;-71
2024/03/02 02:37:42;;;;;;;73.75;35.28;;;;;;;;;;5097126;28;20031;-71
2024/03/02 02:40:08;;;;;;;79.07;36.70;;;;;;;;;;5093927;28;20064;-69
2024/03/02 02:42:34;;;;;;;75.55;34.35;;;;;;;;;;5092281;28;20551;-70
2024/03/02 02:45:00;;;;;;;78.60;35.60;;;;;;;;;;5092318;28;20011;-71
2024/03/02 02:47:26;;;;;;;85.07;36.28;;;;;;;;;;5110746;28;20034;-71
2024/03/02 02:49:51;;;;;;;80.13;36.78;;;;;;;;;;5111278;28;20470;-71
2024/03/02 02:52:18;;;;;;;86.50;39.45;;;;;;;;;;5092705;28;20118;-72
2024/03/02 02:54:44;;;;;;;76.40;35.33;;;;;;;;;;5092049;28;20015;-71
2024/03/02 02:57:09;;;;;;;78.85;37.30;;;;;;;;;;5110032;28;20024;-72
2024/03/02 02:59:35;;;;;;;71.05;35.83;;;;;;;;;;5091776;28;20073;-70
2024/03/02 03:02:01;;;;;;;78.70;38.13;;;;;;;;;;5112719;28;20027;-71
2024/03/02 03:04:26;;;;;;;80.70;36.30;;;;;;;;;;5089996;28;20088;-71
2024/03/02 03:06:52;;;;;;;79.25;35.08;;;;;;;;;;5090260;28;20491;-71
2024/03/02 03:09:17;;;;;;;75.20;33.28;;;;;;;;;;5088247;28;20020;-72
2024/03/02 03:11:43;;;;;;;74.57;33.65;;;;;;;;;;5088477;28;20035;-71
2024/03/02 03:14:09;;;;;;;67.63;34.05;;;;;;;;;;5089375;28;20457;-70
2024/03/02 03:16:34;;;;;;;74.13;34.80;;;;;;;;;;5090668;28;20024;-71
2024/03/02 03:19:00;;;;;;;67.88;35.33;;;;;;;;;;5092961;28;20471;-72
2024/03/02 03:21:25;;;;;;;73.18;34.15;;;;;;;;;;5075511;28;20029;-71
2024/03/02 03:23:51;;;;;;;67.78;32.60;;;;;;;;;;5093484;28;20032;-72
2024/03/02 03:26:16;;;;;;;61.80;29.60;;;;;;;;;;5091858;28;20039;-72
2024/03/02 03:28:42;;;;;;;71.07;29.73;;;;;;;;;;5093607;28;20027;-71
2024/03/02 03:31:07;;;;;;;55.90;26.45;;;;;;;;;;5093648;28;20343;-71
2024/03/02 03:33:32;;;;;;;52.70;24.50;;;;;;;;;;5091888;28;20378;-72
2024/03/02 03:35:58;;;;;;;49.55;24.85;;;;;;;;;;5092352;28;20114;-71
2024/03/02 03:38:23;;;;;;;55.97;26.05;;;;;;;;;;5091893;28;20052;-72
2024/03/02 03:40:51;;;;;;;51.90;24.48;;;;;;;;;;5092036;28;20115;-71
2024/03/02 03:43:16;;;;;;;49.10;24.73;;;;;;;;;;5092994;28;20468;-72
2024/03/02 03:45:42;;;;;;;51.92;23.48;;;;;;;;;;5092191;28;20122;-71
2024/03/02 03:48:07;;;;;;;46.53;22.70;;;;;;;;;;5093237;28;20034;-70
2024/03/02 03:50:33;;;;;;;48.25;22.15;;;;;;;;;;5091355;28;20533;-71
2024/03/02 03:52:58;;;;;;;49.15;20.90;;;;;;;;;;5093018;28;20047;-72
2024/03/02 03:55:24;;;;;;;44.40;22.38;;;;;;;;;;5092676;28;20031;-70
2024/03/02 03:57:49;;;;;;;49.55;21.73;;;;;;;;;;5092841;28;20031;-72
2024/03/02 04:00:15;;;;;;;44.53;19.85;;;;;;;;;;5091474;28;20032;-71
2024/03/02 04:02:41;;;;;;;38.40;20.13;;;;;;;;;;5094825;28;20480;-71
2024/03/02 04:05:10;;;;;;;45.70;20.00;;;;;;;;;;5094818;28;20475;-70
2024/03/02 04:07:40;;;;;;;38.05;18.60;;;;;;;;;;5113104;28;20502;-70
2024/03/02 04:10:10;;;;;;;38.67;19.80;;;;;;;;;;5094893;28;20031;-72
2024/03/02 04:12:36;;;;;;;39.42;19.45;;;;;;;;;;5095111;28;20031;-71
2024/03/02 04:15:06;;;;;;;36.42;18.02;;;;;;;;;;5078325;28;20027;-71
2024/03/02 04:17:36;;;;;;;36.97;18.83;;;;;;;;;;5112931;28;20514;-71
2024/03/02 04:20:04;;;;;;;40.63;19.00;;;;;;;;;;5078177;28;20083;-72
2024/03/02 04:22:30;;;;;;;40.45;20.00;;;;;;;;;;5094569;28;20110;-71
2024/03/02 04:24:55;;;;;;;37.42;18.77;;;;;;;;;;5112944;28;20106;-72
2024/03/02 04:27:21;;;;;;;45.15;19.42;;;;;;;;;;5112568;28;20032;-72
2024/03/02 04:29:46;;;;;;;38.75;20.15;;;;;;;;;;5094355;28;20035;-71
2024/03/02 04:32:12;;;;;;;45.33;19.95;;;;;;;;;;5111698;28;20035;-72
2024/03/02 04:34:37;;;;;;;47.03;18.95;;;;;;;;;;5112922;28;20495;-71
2024/03/02 04:37:03;;;;;;;40.03;19.15;;;;;;;;;;5093933;28;20487;-70
2024/03/02 04:39:29;;;;;;;40.35;18.95;;;;;;;;;;5112358;28;20035;-71
2024/03/02 04:41:54;;;;;;;34.30;17.35;;;;;;;;;;5094021;28;20095;-71
2024/03/02 04:44:20;;;;;;;33.67;17.13;;;;;;;;;;5076918;28;20089;-72
2024/03/02 04:46:45;;;;;;;32.25;16.13;;;;;;;;;;5112501;28;20028;-71
2024/03/02 04:49:11;;;;;;;32.80;17.27;;;;;;;;;;5112998;28;20035;-71
2024/03/02 04:51:36;;;;;;;38.58;16.90;;;;;;;;;;5112248;28;20053;-71
2024/03/02 04:54:02;;;;;;;41.85;17.23;;;;;;;;;;5112530;28;20027;-71
2024/03/02 04:58:53;;;;;;;32.05;16.38;;;;;;;;;;5112472;28;20038;-71
2024/03/02 05:01:19;;;;;;;35.88;16.60;;;;;;;;;;5093739;28;20053;-72
2024/03/02 05:03:45;;;;;;;33.15;16.27;;;;;;;;;;5112393;28;20097;-72
2024/03/02 05:06:10;;;;;;;37.78;17.55;;;;;;;;;;5111962;28;20035;-73
2024/03/02 05:08:36;;;;;;;34.35;17.17;;;;;;;;;;5093659;28;20057;-71
2024/03/02 05:11:31;;;;;;;31.13;16.13;;;;;;;;;;5111725;28;20034;-73
2024/03/02 05:13:47;;;;;;;36.30;16.45;;;;;;;;;;5112158;28;20031;-71
2024/03/02 05:16:12;;;;;;;35.30;17.30;;;;;;;;;;5112593;28;20031;-70
2024/03/02 05:18:38;;;;;;;31.23;15.80;;;;;;;;;;5093542;28;20035;-72
2024/03/02 05:21:05;;;;;;;36.17;17.70;;;;;;;;;;5111951;28;20039;-71
2024/03/02 05:23:30;;;;;;;33.63;17.23;;;;;;;;;;5093018;28;20027;-71
2024/03/02 05:25:56;;;;;;;35.05;16.90;;;;;;;;;;5093300;28;20083;-71
2024/03/02 05:28:22;;;;;;;33.63;16.15;;;;;;;;;;5093017;28;20034;-72
2024/03/02 05:30:47;;;;;;;33.95;16.48;;;;;;;;;;5093468;28;20073;-71
2024/03/02 05:33:13;;;;;;;35.10;16.13;;;;;;;;;;5093814;28;20035;-71
2024/03/02 05:35:38;;;;;;;33.22;17.45;;;;;;;;;;5111564;28;20028;-71
2024/03/02 05:38:04;;;;;;;32.88;17.05;;;;;;;;;;5112682;28;20031;-70
2024/03/02 05:40:29;;;;;;;35.08;15.15;;;;;;;;;;5093714;28;20024;-72
2024/03/02 05:42:55;;;;;;;36.38;17.67;;;;;;;;;;5092642;28;20430;-71
2024/03/02 05:45:20;;;;;;;35.30;16.13;;;;;;;;;;5092299;28;20031;-71
2024/03/02 05:47:45;;;;;;;34.20;16.02;;;;;;;;;;5111564;28;20031;-72
2024/03/02 05:50:11;;;;;;;34.10;16.95;;;;;;;;;;5111327;28;20027;-71
2024/03/02 05:52:37;;;;;;;40.63;17.38;;;;;;;;;;5111011;28;20650;-72
2024/03/02 05:55:02;;;;;;;36.47;15.93;;;;;;;;;;5107237;27;20027;-72
2024/03/02 06:00:19;;;;;;;28.58;14.07;;;;;;;;;;5107433;27;20483;-70
2024/03/02 06:02:45;;;;;;;31.45;16.02;;;;;;;;;;5136062;27;20038;-73
2024/03/02 06:05:11;;;;;;;34.78;14.52;;;;;;;;;;5137455;27;20023;-70
2024/03/02 06:07:36;;;;;;;32.20;14.57;;;;;;;;;;5137731;27;20023;-72
2024/03/02 06:10:04;;;;;;;31.02;16.20;;;;;;;;;;5136969;27;20042;-72
2024/03/02 06:12:32;;;;;;;31.80;15.02;;;;;;;;;;5131839;27;20031;-71
2024/03/02 06:14:57;;;;;;;40.78;16.10;;;;;;;;;;5131834;27;20019;-73
2024/03/02 06:17:23;;;;;;;33.20;16.08;;;;;;;;;;5113270;27;20501;-71
2024/03/02 06:19:49;;;;;;;30.60;15.18;;;;;;;;;;5131013;27;20031;-71
2024/03/02 06:22:14;;;;;;;36.97;17.85;;;;;;;;;;5131079;27;20046;-70
2024/03/02 06:24:40;;;;;;;32.45;15.27;;;;;;;;;;5112465;27;20019;-72
2024/03/02 06:27:05;;;;;;;29.40;14.88;;;;;;;;;;5112881;27;20050;-72
2024/03/02 06:29:34;;;;;;;34.15;15.32;;;;;;;;;;5112618;27;20467;-72
2024/03/02 06:32:00;;;;;;;36.67;16.75;;;;;;;;;;5130895;27;20030;-71
2024/03/02 06:34:26;;;;;;;36.80;16.33;;;;;;;;;;5131046;27;20015;-71
2024/03/02 06:36:52;;;;;;;37.70;16.92;;;;;;;;;;5112219;28;20546;-71
2024/03/02 06:39:17;;;;;;;32.97;16.10;;;;;;;;;;5130713;27;20029;-73
2024/03/02 06:41:43;;;;;;;32.80;16.60;;;;;;;;;;5128601;27;20386;-72
2024/03/02 06:44:08;;;;;;;32.38;16.02;;;;;;;;;;5092065;28;20417;-72
2024/03/02 06:46:34;;;;;;;39.00;17.38;;;;;;;;;;5110180;28;20034;-72
2024/03/02 06:48:59;;;;;;;35.25;16.45;;;;;;;;;;5091825;28;20058;-72
2024/03/02 06:51:25;;;;;;;32.45;16.25;;;;;;;;;;5109809;28;20131;-72
2024/03/02 06:53:50;;;;;;;37.72;16.83;;;;;;;;;;5096300;27;20023;-71
2024/03/02 06:56:16;;;;;;;37.45;17.27;;;;;;;;;;5130510;27;20054;-72
2024/03/02 06:58:42;;;;;;;28.77;15.55;;;;;;;;;;5130611;27;20035;-72
2024/03/02 07:01:08;;;;;;;33.40;14.88;;;;;;;;;;5112106;27;20099;-71
2024/03/02 07:03:33;;;;;;;35.63;15.88;;;;;;;;;;5110850;27;20138;-72
2024/03/02 07:06:00;;;;;;;35.75;17.23;;;;;;;;;;5111539;27;20050;-72
2024/03/02 07:08:26;;;;;;;38.70;17.20;;;;;;;;;;5111108;28;20459;-72
2024/03/02 07:10:51;;;;;;;31.02;15.35;;;;;;;;;;5111311;28;20034;-71
2024/03/02 07:13:17;;;;;;;34.78;17.27;;;;;;;;;;5111105;28;20023;-71
2024/03/02 07:16:21;;;;;;;31.58;16.75;;;;;;;;;;5111223;28;20475;-72
2024/03/02 07:18:45;;;;;;;37.15;15.80;;;;;;;;;;5129424;28;20383;-72
2024/03/02 07:21:10;;;;;;;37.90;17.08;;;;;;;;;;5111445;28;20027;-72
2024/03/02 07:23:36;;;;;;;32.17;16.00;;;;;;;;;;5111206;28;20065;-72
2024/03/02 07:26:03;;;;;;;31.92;16.33;;;;;;;;;;5129813;28;20033;-72
2024/03/02 07:28:29;;;;;;;31.90;15.57;;;;;;;;;;5129803;28;20031;-71
2024/03/02 07:31:13;;;;;;;34.03;15.50;;;;;;;;;;5111456;28;20598;-71
2024/03/02 07:33:38;;;;;;;35.90;16.95;;;;;;;;;;5110986;28;20408;-71
2024/03/02 07:36:04;;;;;;;28.10;15.68;;;;;;;;;;5111180;28;20092;-71
2024/03/02 07:38:31;;;;;;;34.20;17.42;;;;;;;;;;5129252;28;20500;-73
2024/03/02 07:40:57;;;;;;;35.92;16.45;;;;;;;;;;5129347;28;20027;-72
2024/03/02 07:43:22;;;;;;;37.58;16.50;;;;;;;;;;5113163;28;20061;-70
2024/03/02 07:45:48;;;;;;;34.00;16.42;;;;;;;;;;5090538;28;20055;-72
2024/03/02 07:48:14;;;;;;;33.60;15.95;;;;;;;;;;5090921;28;20055;-73
2024/03/02 07:50:40;;;;;;;31.33;15.93;;;;;;;;;;5109418;28;20019;-69
2024/03/02 07:53:07;;;;;;;34.95;16.02;;;;;;;;;;5110252;28;20080;-72
2024/03/02 07:55:33;;;;;;;32.42;17.30;;;;;;;;;;5109135;28;20056;-73
2024/03/02 07:57:59;;;;;;;30.70;16.00;;;;;;;;;;5110742;28;20019;-72
2024/03/02 08:00:25;;;;;;;32.20;17.13;;;;;;;;;;5110822;28;20023;-71
2024/03/02 08:02:51;;;;;;;36.53;17.20;;;;;;;;;;5129494;28;20047;-72
2024/03/02 08:05:18;;;;;;;33.65;16.02;;;;;;;;;;5111184;28;20038;-73
2024/03/02 08:07:46;;;;;;;47.40;17.73;;;;;;;;;;5113111;27;20068;-72
2024/03/02 08:10:12;;;;;;;37.67;16.90;;;;;;;;;;5115179;27;20038;-73
2024/03/02 08:12:37;;;;;;;35.38;16.40;;;;;;;;;;5114514;27;20031;-73
2024/03/02 08:15:04;;;;;;;32.35;16.35;;;;;;;;;;5133572;27;20027;-71
2024/03/02 08:17:29;;;;;;;38.42;16.92;;;;;;;;;;5114815;27;20239;-72
2024/03/02 08:19:55;;;;;;;36.17;17.10;;;;;;;;;;5133627;27;20161;-73
2024/03/02 08:22:21;;;;;;;30.75;15.98;;;;;;;;;;5133093;27;20031;-72
2024/03/02 08:24:47;;;;;;;29.48;15.40;;;;;;;;;;5132750;27;20027;-72
2024/03/02 08:27:12;;;;;;;35.22;16.83;;;;;;;;;;5097650;27;20026;-72
2024/03/02 08:29:38;;;;;;;33.78;16.15;;;;;;;;;;5132747;27;20031;-73
2024/03/02 08:32:04;;;;;;;27.77;15.90;;;;;;;;;;5132701;27;20114;-73
2024/03/02 08:34:30;;;;;;;34.30;16.30;;;;;;;;;;5132375;27;20463;-72
2024/03/02 08:36:55;;;;;;;35.75;16.00;;;;;;;;;;5132581;27;20066;-72
2024/03/02 08:39:21;;;;;;;27.73;15.63;;;;;;;;;;5133061;27;20022;-73
2024/03/02 08:41:47;;;;;;;39.17;15.10;;;;;;;;;;5110997;27;21231;-72
2024/03/02 08:44:13;;;;;;;34.60;14.75;;;;;;;;;;5093455;28;20128;-72
2024/03/02 08:46:40;;;;;;;33.30;15.98;;;;;;;;;;5093171;28;20031;-72
2024/03/02 08:49:06;;;;;;;32.33;14.50;;;;;;;;;;5111577;28;20038;-71
2024/03/02 08:51:32;;;;;;;35.95;15.10;;;;;;;;;;5111710;28;20106;-72
2024/03/02 08:53:57;;;;;;;25.00;13.25;;;;;;;;;;5098781;27;20485;-72
2024/03/02 08:56:24;;;;;;;33.40;14.45;;;;;;;;;;5133963;27;20037;-72
2024/03/02 08:58:50;;;;;;;30.50;14.65;;;;;;;;;;5117729;27;20023;-72
2024/03/02 09:01:16;;;;;;;30.15;14.23;;;;;;;;;;5137244;27;20054;-73
2024/03/02 09:03:45;;;;;;;27.13;14.65;;;;;;;;;;5136171;27;20051;-72
2024/03/02 09:06:14;;;;;;;30.33;13.90;;;;;;;;;;5119199;27;20031;-72
2024/03/02 09:08:39;;;;;;;30.67;14.98;;;;;;;;;;5117319;27;20019;-72
2024/03/02 09:11:08;;;;;;;28.55;13.85;;;;;;;;;;5113770;27;20023;-72
2024/03/02 09:13:34;;;;;;;25.05;13.60;;;;;;;;;;5113518;27;20090;-71
2024/03/02 09:16:00;;;;;;;29.55;15.38;;;;;;;;;;5113734;27;20493;-72
2024/03/02 09:18:25;;;;;;;26.45;13.57;;;;;;;;;;5112936;27;20027;-72
2024/03/02 09:20:52;;;;;;;24.80;13.07;;;;;;;;;;5113323;27;20052;-71
2024/03/02 09:23:18;;;;;;;27.73;13.73;;;;;;;;;;5113371;27;20019;-72
2024/03/02 09:25:43;;;;;;;28.05;13.15;;;;;;;;;;5131426;27;20026;-71
2024/03/02 09:28:10;;;;;;;29.05;14.75;;;;;;;;;;5113313;27;20037;-71
2024/03/02 09:30:36;;;;;;;23.90;12.75;;;;;;;;;;5131663;27;20390;-73
2024/03/02 09:33:01;;;;;;;27.35;14.23;;;;;;;;;;5131963;27;20033;-72
2024/03/02 09:35:27;;;;;;;22.90;11.85;;;;;;;;;;5113223;27;20027;-73
2024/03/02 09:37:52;;;;;;;27.98;13.65;;;;;;;;;;5112771;27;20050;-71
2024/03/02 09:40:21;;;;;;;24.02;12.00;;;;;;;;;;5112901;27;20122;-72
2024/03/02 09:42:51;;;;;;;25.20;11.18;;;;;;;;;;5119755;27;20031;-71
2024/03/02 09:45:22;;;;;;;22.63;10.57;;;;;;;;;;5092587;28;20024;-72
2024/03/02 09:47:48;;;;;;;22.33;11.32;;;;;;;;;;5110375;28;20050;-72
2024/03/02 09:50:14;;;;;;;23.48;11.50;;;;;;;;;;5112364;28;20053;-72
2024/03/02 09:52:49;;;;;;;27.05;12.75;;;;;;;;;;5095321;28;20110;-71
2024/03/02 09:55:24;;;;;;;27.73;13.45;;;;;;;;;;5095147;27;20052;-71
2024/03/02 09:57:54;;;;;;;26.13;13.05;;;;;;;;;;5128796;27;20042;-72
2024/03/02 10:00:25;;;;;;;33.45;13.30;;;;;;;;;;5114804;27;20130;-72
2024/03/02 10:02:55;;;;;;;22.60;12.80;;;;;;;;;;5114538;27;20047;-73
2024/03/02 10:05:53;;;;;;;21.38;12.82;;;;;;;;;;5115420;27;20804;-70
2024/03/02 10:08:18;;;;;;;26.27;12.75;;;;;;;;;;5113329;27;20107;-72
2024/03/02 10:10:44;;;;;;;26.77;13.00;;;;;;;;;;5114842;27;20067;-70
2024/03/02 10:13:12;;;;;;;30.58;13.18;;;;;;;;;;5135333;27;20023;-73
2024/03/02 10:15:41;;;;;;;27.55;13.32;;;;;;;;;;5117755;27;20025;-69
2024/03/02 10:18:12;;;;;;;22.63;12.27;;;;;;;;;;5118123;27;20585;-73
2024/03/02 10:20:39;;;;;;;21.05;12.52;;;;;;;;;;5135253;27;20026;-71
2024/03/02 10:23:13;;;;;;;25.52;13.10;;;;;;;;;;5115503;27;20034;-72
2024/03/02 10:25:48;;;;;;;19.58;11.82;;;;;;;;;;5114241;27;20027;-71
2024/03/02 10:28:15;;;;;;;24.00;11.95;;;;;;;;;;5115090;27;20114;-71
2024/03/02 10:30:41;;;;;;;25.95;12.98;;;;;;;;;;5113344;27;20023;-71
2024/03/02 10:33:07;;;;;;;27.38;13.00;;;;;;;;;;5113779;27;20023;-71
2024/03/02 10:35:36;;;;;;;24.95;11.75;;;;;;;;;;5132379;27;20026;-73
2024/03/02 10:38:04;;;;;;;21.88;11.13;;;;;;;;;;5113610;27;20030;-71
2024/03/02 10:40:31;;;;;;;21.23;11.65;;;;;;;;;;5131811;27;20107;-73
2024/03/02 10:43:01;;;;;;;24.17;12.20;;;;;;;;;;5115949;27;20038;-72
2024/03/02 10:45:28;;;;;;;27.77;13.07;;;;;;;;;;5093741;28;20368;-72
2024/03/02 10:48:02;;;;;;;21.27;10.75;;;;;;;;;;5093813;28;20546;-73
2024/03/02 10:50:29;;;;;;;22.60;10.60;;;;;;;;;;5092685;28;20035;-71
2024/03/02 10:52:57;;;;;;;21.25;11.25;;;;;;;;;;5092250;28;20023;-71
2024/03/02 10:55:25;;;;;;;21.52;11.15;;;;;;;;;;5111672;27;20023;-72
2024/03/02 10:57:53;;;;;;;26.10;11.88;;;;;;;;;;5114262;27;20027;-70
2024/03/02 11:00:30;;;;;;;27.60;12.20;;;;;;;;;;5097524;28;20031;-72
2024/03/02 11:02:59;;;;;;;20.65;11.73;;;;;;;;;;5130218;27;20043;-71
2024/03/02 11:05:32;;;;;;;21.58;11.55;;;;;;;;;;5113071;27;20019;-72
2024/03/02 11:08:11;;;;;;;25.10;12.05;;;;;;;;;;5115501;28;20514;-73
2024/03/02 11:10:44;;;;;;;25.48;11.98;;;;;;;;;;5115192;28;20122;-72
2024/03/02 11:13:13;;;;;;;23.38;12.25;;;;;;;;;;5113400;28;20043;-71
2024/03/02 11:15:45;;;;;;;23.42;12.55;;;;;;;;;;5131622;28;20079;-73
2024/03/02 11:18:13;;;;;;;24.30;13.85;;;;;;;;;;5075923;28;20039;-71
2024/03/02 11:20:40;;;;;;;25.70;13.63;;;;;;;;;;5092214;28;20616;-74
2024/03/02 11:23:10;;;;;;;23.63;12.18;;;;;;;;;;5110651;28;20034;-72
2024/03/02 11:25:39;;;;;;;19.98;11.02;;;;;;;;;;5091490;28;20035;-71
2024/03/02 11:28:09;;;;;;;22.17;11.95;;;;;;;;;;5074834;28;20479;-72
2024/03/02 11:30:37;;;;;;;24.50;11.73;;;;;;;;;;5078748;28;20712;-71
2024/03/02 11:33:15;;;;;;;20.20;11.55;;;;;;;;;;5110390;28;20027;-71
2024/03/02 11:35:48;;;;;;;21.83;12.27;;;;;;;;;;5092056;28;20024;-71
2024/03/02 11:38:15;;;;;;;22.85;11.05;;;;;;;;;;5110363;28;20165;-72
2024/03/02 11:40:42;;;;;;;26.33;14.88;;;;;;;;;;5093721;28;20038;-71
2024/03/02 11:43:15;;;;;;;18.73;10.52;;;;;;;;;;5096808;28;20130;-71
2024/03/02 11:45:58;;;;;;;23.00;11.80;;;;;;;;;;5095016;28;20036;-73
2024/03/02 11:48:26;;;;;;;23.13;13.15;;;;;;;;;;5096730;28;20558;-71
2024/03/02 11:50:55;;;;;;;23.50;12.30;;;;;;;;;;5079608;28;20031;-72
2024/03/02 11:53:23;;;;;;;21.63;12.23;;;;;;;;;;5096095;27;20031;-72
2024/03/02 11:55:52;;;;;;;30.98;14.68;;;;;;;;;;5099202;27;20034;-72
2024/03/02 11:58:24;;;;;;;23.83;13.23;;;;;;;;;;5116311;27;20015;-73
2024/03/02 12:00:57;;;;;;;29.15;12.90;;;;;;;;;;5136039;27;20045;-73
2024/03/02 12:03:27;;;;;;;19.87;11.23;;;;;;;;;;5133021;27;20043;-72
2024/03/02 12:05:57;;;;;;;20.33;11.75;;;;;;;;;;5132796;27;20413;-72
2024/03/02 12:08:24;;;;;;;23.50;10.57;;;;;;;;;;5115670;27;20502;-72
2024/03/02 12:11:06;;;;;;;20.65;10.73;;;;;;;;;;5115411;27;20023;-71
2024/03/02 12:13:34;;;;;;;19.98;10.45;;;;;;;;;;5116733;27;20102;-71
2024/03/02 12:16:02;;;;;;;14.60;10.02;;;;;;;;;;5115494;27;20114;-71
2024/03/02 12:18:30;;;;;;;17.95;10.68;;;;;;;;;;5098374;27;20486;-71
2024/03/02 12:21:02;;;;;;;20.02;10.88;;;;;;;;;;5115358;27;20025;-72
2024/03/02 12:23:28;;;;;;;;;;;;;;;;;;5116237;27;20023;-71
2024/03/02 12:25:56;;;;;;;17.88;10.25;;;;;;;;;;5115953;27;19911;-73
2024/03/02 12:28:24;;;;;;;20.48;10.85;;;;;;;;;;5115958;27;20049;-71
2024/03/02 12:30:55;;;;;;;19.45;10.10;;;;;;;;;;5114877;27;20015;-73
2024/03/02 12:33:24;;;;;;;21.00;10.65;;;;;;;;;;5116051;27;20049;-72
2024/03/02 12:35:58;;;;;;;18.63;11.00;;;;;;;;;;5116317;27;20088;-72
2024/03/02 12:38:40;;;;;;;19.10;11.23;;;;;;;;;;5135084;27;20058;-71
2024/03/02 12:41:16;;;;;;;19.95;10.70;;;;;;;;;;5134558;27;20026;-72
2024/03/02 12:43:46;;;;;;;20.48;10.93;;;;;;;;;;5113745;27;20106;-72
2024/03/02 12:46:22;;;;;;;17.75;11.15;;;;;;;;;;5115157;27;20070;-74
2024/03/02 12:48:53;;;;;;;25.35;11.77;;;;;;;;;;5133581;27;20057;-71
2024/03/02 12:51:23;;;;;;;16.23;9.98;;;;;;;;;;5133713;27;20031;-72
2024/03/02 12:53:56;;;;;;;16.77;9.60;;;;;;;;;;5093447;28;20109;-72
2024/03/02 12:56:23;;;;;;;19.90;11.32;;;;;;;;;;5094628;28;20036;-74
2024/03/02 12:59:13;;;;;;;22.27;11.57;;;;;;;;;;5094923;28;20031;-73
2024/03/02 13:01:51;;;;;;;29.63;13.02;;;;;;;;;;5092532;28;20038;-71
2024/03/02 13:04:31;;;;;;;22.83;11.70;;;;;;;;;;5077320;28;20063;-73
2024/03/02 13:06:59;;;;;;;18.77;11.50;;;;;;;;;;5095072;28;20039;-73
2024/03/02 13:09:27;;;;;;;18.60;11.35;;;;;;;;;;5094931;28;20264;-72
2024/03/02 13:11:54;;;;;;;20.75;11.48;;;;;;;;;;5093744;28;20055;-71
2024/03/02 13:14:25;;;;;;;19.15;11.60;;;;;;;;;;5094859;28;20111;-71
2024/03/02 13:17:04;;;;;;;28.67;12.90;;;;;;;;;;5061635;28;20037;-71
2024/03/02 13:19:30;;;;;;;25.77;11.55;;;;;;;;;;5093962;28;20031;-72
2024/03/02 13:21:59;;;;;;;22.75;13.68;;;;;;;;;;5094035;28;20084;-72
2024/03/02 13:24:33;;;;;;;22.92;12.27;;;;;;;;;;5112908;28;20027;-71
2024/03/02 13:27:09;;;;;;;24.50;13.80;;;;;;;;;;5111969;28;20051;-73
2024/03/02 13:29:40;;;;;;;27.27;13.63;;;;;;;;;;5077779;28;20059;-70
2024/03/02 13:32:08;;;;;;;20.50;13.13;;;;;;;;;;5078134;28;20081;-71
2024/03/02 13:34:35;;;;;;;27.13;13.40;;;;;;;;;;5112273;28;20025;-72
2024/03/02 13:37:09;;;;;;;22.70;13.77;;;;;;;;;;5112204;28;20047;-71
2024/03/02 13:39:40;;;;;;;25.23;14.40;;;;;;;;;;5094550;28;20019;-72
2024/03/02 13:42:10;;;;;;;23.95;13.43;;;;;;;;;;5108512;28;20039;-71
2024/03/02 13:44:37;;;;;;;26.58;12.90;;;;;;;;;;5094230;28;20140;-71
2024/03/02 13:47:22;;;;;;;24.98;13.40;;;;;;;;;;5093965;28;20031;-72
2024/03/02 13:49:51;;;;;;;21.67;12.75;;;;;;;;;;5093500;28;20503;-73
2024/03/02 13:52:25;;;;;;;22.30;12.07;;;;;;;;;;5093454;28;20127;-73
2024/03/02 13:54:54;;;;;;;24.13;12.68;;;;;;;;;;5111782;28;20395;-71
2024/03/02 13:57:20;;;;;;;21.77;12.68;;;;;;;;;;5048726;28;20039;-71
2024/03/02 13:59:48;;;;;;;24.30;13.45;;;;;;;;;;5031197;28;20476;-72
2024/03/02 14:02:17;;;;;;;19.58;12.05;;;;;;;;;;5032106;28;20437;-72
2024/03/02 14:04:47;;;;;;;25.00;13.02;;;;;;;;;;5013288;28;20162;-71
2024/03/02 14:07:16;;;;;;;25.25;13.10;;;;;;;;;;5028694;28;20021;-70
2024/03/02 14:09:42;;;;;;;21.30;12.32;;;;;;;;;;5006976;28;20587;-71
2024/03/02 14:12:10;;;;;;;21.83;12.45;;;;;;;;;;5028961;28;20094;-74
2024/03/02 14:14:41;;;;;;;36.15;13.65;;;;;;;;;;4996053;28;20044;-73
2024/03/02 14:17:14;;;;;;;27.77;14.27;;;;;;;;;;5012477;28;20038;-70
2024/03/02 14:19:43;;;;;;;24.83;13.90;;;;;;;;;;5028996;28;20111;-71
2024/03/02 14:22:17;;;;;;;24.38;14.20;;;;;;;;;;5013600;28;20512;-71
2024/03/02 14:24:43;;;;;;;25.00;12.88;;;;;;;;;;5014948;28;20037;-70
2024/03/02 14:27:09;;;;;;;19.00;12.30;;;;;;;;;;5013512;28;20255;-71